Elesbao Veloso, Brazil
Current Conditions -  °F | °C
As of 10:00 AM on Monday 20 Oct 2014 (Local Time) from SBTE Reporting Station
Scattered Clouds Scattered Clouds  
Wind Chill: 90°   Ceiling: Unl
Heat Index: 96°   Visibility: 6mi
Dew Point: 72°   Wind: 2mph
Humidity: 55%   Direction: 280°W
Pressure: 29.85"   Gusts: NA
Location:  6.2°S, 42.14°W
Report Text: SBTE 201300Z 28002KT 9999 SCT030 32/22 Q1011
Loading
Personal Weather Stations






























Interactive Weather Map
Tropical Storm Tracking
New forecast layout! Learn more

10-Day Weather Forecast

Advertisements
Track Severe Weather on mobile